sensor_id;sensor_type;location;lat;lon;timestamp;temperature;humidity
57566;DHT22;63999;43.882;-0.310;2022-12-10T00:01:13;8.00;78.20
57566;DHT22;63999;43.882;-0.310;2022-12-10T00:03:39;7.90;78.40
57566;DHT22;63999;43.882;-0.310;2022-12-10T00:06:08;7.90;77.90
57566;DHT22;63999;43.882;-0.310;2022-12-10T00:08:34;7.90;78.00
57566;DHT22;63999;43.882;-0.310;2022-12-10T00:11:02;7.80;77.70
57566;DHT22;63999;43.882;-0.310;2022-12-10T00:13:28;7.80;78.10
57566;DHT22;63999;43.882;-0.310;2022-12-10T00:15:54;7.80;78.20
57566;DHT22;63999;43.882;-0.310;2022-12-10T00:18:20;7.80;78.30
57566;DHT22;63999;43.882;-0.310;2022-12-10T00:20:46;7.80;78.10
57566;DHT22;63999;43.882;-0.310;2022-12-10T00:23:11;7.80;78.10
57566;DHT22;63999;43.882;-0.310;2022-12-10T00:25:37;7.80;77.70
57566;DHT22;63999;43.882;-0.310;2022-12-10T00:28:03;7.80;77.70
57566;DHT22;63999;43.882;-0.310;2022-12-10T00:30:29;7.80;77.70
57566;DHT22;63999;43.882;-0.310;2022-12-10T00:32:55;7.80;77.40
57566;DHT22;63999;43.882;-0.310;2022-12-10T00:35:20;7.80;77.40
57566;DHT22;63999;43.882;-0.310;2022-12-10T00:37:46;7.80;77.70
57566;DHT22;63999;43.882;-0.310;2022-12-10T00:40:12;7.80;77.50
57566;DHT22;63999;43.882;-0.310;2022-12-10T00:42:38;7.80;77.60
57566;DHT22;63999;43.882;-0.310;2022-12-10T00:45:04;7.70;77.60
57566;DHT22;63999;43.882;-0.310;2022-12-10T00:47:30;7.70;77.30
57566;DHT22;63999;43.882;-0.310;2022-12-10T00:49:56;7.60;76.70
57566;DHT22;63999;43.882;-0.310;2022-12-10T00:52:21;7.60;77.60
57566;DHT22;63999;43.882;-0.310;2022-12-10T00:54:47;7.60;77.20
57566;DHT22;63999;43.882;-0.310;2022-12-10T00:57:13;7.60;77.30
57566;DHT22;63999;43.882;-0.310;2022-12-10T00:59:39;7.60;77.20
57566;DHT22;63999;43.882;-0.310;2022-12-10T01:02:05;7.60;77.00
57566;DHT22;63999;43.882;-0.310;2022-12-10T01:04:31;7.60;76.60
57566;DHT22;63999;43.882;-0.310;2022-12-10T01:06:57;7.60;77.00
57566;DHT22;63999;43.882;-0.310;2022-12-10T01:09:29;7.50;77.00
57566;DHT22;63999;43.882;-0.310;2022-12-10T01:11:59;7.50;76.50
57566;DHT22;63999;43.882;-0.310;2022-12-10T01:14:31;7.50;77.20
57566;DHT22;63999;43.882;-0.310;2022-12-10T01:17:00;7.50;76.80
57566;DHT22;63999;43.882;-0.310;2022-12-10T01:19:29;7.50;76.80
57566;DHT22;63999;43.882;-0.310;2022-12-10T01:21:56;7.50;76.80
57566;DHT22;63999;43.882;-0.310;2022-12-10T01:24:24;7.50;76.50
57566;DHT22;63999;43.882;-0.310;2022-12-10T01:26:50;7.50;76.40
57566;DHT22;63999;43.882;-0.310;2022-12-10T01:29:16;7.50;76.20
57566;DHT22;63999;43.882;-0.310;2022-12-10T01:31:42;7.40;76.40
57566;DHT22;63999;43.882;-0.310;2022-12-10T01:34:11;7.40;76.40
57566;DHT22;63999;43.882;-0.310;2022-12-10T01:36:40;7.40;76.20
57566;DHT22;63999;43.882;-0.310;2022-12-10T01:39:08;7.40;76.40
57566;DHT22;63999;43.882;-0.310;2022-12-10T01:41:46;7.40;76.30
57566;DHT22;63999;43.882;-0.310;2022-12-10T01:46:44;7.40;76.10
57566;DHT22;63999;43.882;-0.310;2022-12-10T01:49:12;7.40;76.40
57566;DHT22;63999;43.882;-0.310;2022-12-10T01:51:41;7.30;76.20
57566;DHT22;63999;43.882;-0.310;2022-12-10T01:54:11;7.30;76.30
57566;DHT22;63999;43.882;-0.310;2022-12-10T01:56:43;7.20;76.00
57566;DHT22;63999;43.882;-0.310;2022-12-10T01:59:10;7.20;76.30
57566;DHT22;63999;43.882;-0.310;2022-12-10T02:01:54;7.20;76.10
57566;DHT22;63999;43.882;-0.310;2022-12-10T02:04:42;7.20;75.80
57566;DHT22;63999;43.882;-0.310;2022-12-10T02:07:27;7.20;76.50
57566;DHT22;63999;43.882;-0.310;2022-12-10T02:13:11;7.20;75.60
57566;DHT22;63999;43.882;-0.310;2022-12-10T02:15:43;7.20;75.80
57566;DHT22;63999;43.882;-0.310;2022-12-10T02:18:19;7.20;76.10
57566;DHT22;63999;43.882;-0.310;2022-12-10T02:20:49;7.20;76.10
57566;DHT22;63999;43.882;-0.310;2022-12-10T02:23:28;7.20;76.00
57566;DHT22;63999;43.882;-0.310;2022-12-10T02:26:16;7.20;75.80
57566;DHT22;63999;43.882;-0.310;2022-12-10T02:31:30;7.20;75.60
57566;DHT22;63999;43.882;-0.310;2022-12-10T02:34:00;7.10;75.60
57566;DHT22;63999;43.882;-0.310;2022-12-10T02:36:29;7.10;75.60
57566;DHT22;63999;43.882;-0.310;2022-12-10T02:39:01;7.10;76.00
57566;DHT22;63999;43.882;-0.310;2022-12-10T02:41:34;7.10;76.00
57566;DHT22;63999;43.882;-0.310;2022-12-10T02:44:04;7.10;75.40
57566;DHT22;63999;43.882;-0.310;2022-12-10T02:46:33;7.10;75.50
57566;DHT22;63999;43.882;-0.310;2022-12-10T02:49:02;7.10;75.30
57566;DHT22;63999;43.882;-0.310;2022-12-10T02:51:28;7.00;75.40
57566;DHT22;63999;43.882;-0.310;2022-12-10T02:54:02;7.00;75.50
57566;DHT22;63999;43.882;-0.310;2022-12-10T02:56:39;7.00;75.80
57566;DHT22;63999;43.882;-0.310;2022-12-10T02:59:28;7.00;75.30
57566;DHT22;63999;43.882;-0.310;2022-12-10T03:02:20;7.00;75.70
57566;DHT22;63999;43.882;-0.310;2022-12-10T03:05:53;7.00;75.90
57566;DHT22;63999;43.882;-0.310;2022-12-10T03:08:13;7.00;75.40
57566;DHT22;63999;43.882;-0.310;2022-12-10T03:13:16;7.00;75.20
57566;DHT22;63999;43.882;-0.310;2022-12-10T03:15:44;7.00;75.10
57566;DHT22;63999;43.882;-0.310;2022-12-10T03:18:12;7.00;75.30
57566;DHT22;63999;43.882;-0.310;2022-12-10T03:20:44;7.00;75.10
57566;DHT22;63999;43.882;-0.310;2022-12-10T03:23:14;7.00;75.40
57566;DHT22;63999;43.882;-0.310;2022-12-10T03:25:41;7.00;75.40
57566;DHT22;63999;43.882;-0.310;2022-12-10T03:28:07;7.00;74.80
57566;DHT22;63999;43.882;-0.310;2022-12-10T03:30:35;7.00;75.00
57566;DHT22;63999;43.882;-0.310;2022-12-10T03:33:02;6.90;74.90
57566;DHT22;63999;43.882;-0.310;2022-12-10T03:35:29;6.90;74.80
57566;DHT22;63999;43.882;-0.310;2022-12-10T03:37:56;6.90;75.00
57566;DHT22;63999;43.882;-0.310;2022-12-10T03:40:23;6.90;74.70
57566;DHT22;63999;43.882;-0.310;2022-12-10T03:42:50;6.80;74.90
57566;DHT22;63999;43.882;-0.310;2022-12-10T03:45:15;6.80;74.90
57566;DHT22;63999;43.882;-0.310;2022-12-10T03:47:42;6.80;74.70
57566;DHT22;63999;43.882;-0.310;2022-12-10T03:50:08;6.80;74.70
57566;DHT22;63999;43.882;-0.310;2022-12-10T03:52:34;6.80;74.50
57566;DHT22;63999;43.882;-0.310;2022-12-10T03:55:00;6.80;74.90
57566;DHT22;63999;43.882;-0.310;2022-12-10T03:57:26;6.70;74.50
57566;DHT22;63999;43.882;-0.310;2022-12-10T03:59:52;6.80;74.80
57566;DHT22;63999;43.882;-0.310;2022-12-10T04:02:18;6.80;74.60
57566;DHT22;63999;43.882;-0.310;2022-12-10T04:04:44;6.70;74.60
57566;DHT22;63999;43.882;-0.310;2022-12-10T04:07:10;6.70;74.70
57566;DHT22;63999;43.882;-0.310;2022-12-10T04:09:35;6.70;74.50
57566;DHT22;63999;43.882;-0.310;2022-12-10T04:12:01;6.70;74.50
57566;DHT22;63999;43.882;-0.310;2022-12-10T04:14:27;6.70;74.40
57566;DHT22;63999;43.882;-0.310;2022-12-10T04:17:12;6.70;74.20
57566;DHT22;63999;43.882;-0.310;2022-12-10T04:19:38;6.70;74.40
57566;DHT22;63999;43.882;-0.310;2022-12-10T04:22:04;6.70;74.40
57566;DHT22;63999;43.882;-0.310;2022-12-10T04:24:48;6.60;74.30
57566;DHT22;63999;43.882;-0.310;2022-12-10T04:27:52;6.60;74.60
57566;DHT22;63999;43.882;-0.310;2022-12-10T04:30:18;6.60;74.40
57566;DHT22;63999;43.882;-0.310;2022-12-10T04:32:44;6.60;74.30
57566;DHT22;63999;43.882;-0.310;2022-12-10T04:35:10;6.60;74.50
57566;DHT22;63999;43.882;-0.310;2022-12-10T04:37:36;6.60;74.50
57566;DHT22;63999;43.882;-0.310;2022-12-10T04:40:02;6.60;74.50
57566;DHT22;63999;43.882;-0.310;2022-12-10T04:42:28;6.60;74.10
57566;DHT22;63999;43.882;-0.310;2022-12-10T04:44:54;6.60;74.10
57566;DHT22;63999;43.882;-0.310;2022-12-10T04:47:19;6.60;74.30
57566;DHT22;63999;43.882;-0.310;2022-12-10T04:49:45;6.50;74.30
57566;DHT22;63999;43.882;-0.310;2022-12-10T04:52:13;6.50;74.20
57566;DHT22;63999;43.882;-0.310;2022-12-10T04:54:40;6.50;74.20
57566;DHT22;63999;43.882;-0.310;2022-12-10T04:57:06;6.50;74.20
57566;DHT22;63999;43.882;-0.310;2022-12-10T04:59:32;6.40;74.60
57566;DHT22;63999;43.882;-0.310;2022-12-10T05:01:58;6.50;74.00
57566;DHT22;63999;43.882;-0.310;2022-12-10T05:04:24;6.40;74.00
57566;DHT22;63999;43.882;-0.310;2022-12-10T05:06:50;6.40;74.00
57566;DHT22;63999;43.882;-0.310;2022-12-10T05:09:16;6.40;74.20
57566;DHT22;63999;43.882;-0.310;2022-12-10T05:11:43;6.40;73.90
57566;DHT22;63999;43.882;-0.310;2022-12-10T05:14:13;6.40;74.00
57566;DHT22;63999;43.882;-0.310;2022-12-10T05:16:40;6.40;74.10
57566;DHT22;63999;43.882;-0.310;2022-12-10T05:19:06;6.40;73.90
57566;DHT22;63999;43.882;-0.310;2022-12-10T05:21:32;6.40;74.10
57566;DHT22;63999;43.882;-0.310;2022-12-10T05:24:17;6.30;73.50
57566;DHT22;63999;43.882;-0.310;2022-12-10T05:26:43;6.30;74.30
57566;DHT22;63999;43.882;-0.310;2022-12-10T05:29:09;6.30;74.00
57566;DHT22;63999;43.882;-0.310;2022-12-10T05:31:35;6.30;73.40
57566;DHT22;63999;43.882;-0.310;2022-12-10T05:34:01;6.30;73.30
57566;DHT22;63999;43.882;-0.310;2022-12-10T05:36:30;6.30;73.90
57566;DHT22;63999;43.882;-0.310;2022-12-10T05:38:56;6.30;73.80
57566;DHT22;63999;43.882;-0.310;2022-12-10T05:41:28;6.30;73.90
57566;DHT22;63999;43.882;-0.310;2022-12-10T05:43:56;6.30;73.70
57566;DHT22;63999;43.882;-0.310;2022-12-10T05:46:24;6.30;73.50
57566;DHT22;63999;43.882;-0.310;2022-12-10T05:48:51;6.30;73.60
57566;DHT22;63999;43.882;-0.310;2022-12-10T05:51:20;6.30;73.60
57566;DHT22;63999;43.882;-0.310;2022-12-10T05:53:46;6.30;73.40
57566;DHT22;63999;43.882;-0.310;2022-12-10T05:56:15;6.20;73.50
57566;DHT22;63999;43.882;-0.310;2022-12-10T05:58:45;6.30;73.80
57566;DHT22;63999;43.882;-0.310;2022-12-10T06:01:13;6.30;73.50
57566;DHT22;63999;43.882;-0.310;2022-12-10T06:03:41;6.20;73.70
57566;DHT22;63999;43.882;-0.310;2022-12-10T06:06:08;6.30;73.40
57566;DHT22;63999;43.882;-0.310;2022-12-10T06:08:34;6.20;73.00
57566;DHT22;63999;43.882;-0.310;2022-12-10T06:11:05;6.20;73.00
57566;DHT22;63999;43.882;-0.310;2022-12-10T06:13:32;6.20;73.10
57566;DHT22;63999;43.882;-0.310;2022-12-10T06:15:58;6.20;73.20
57566;DHT22;63999;43.882;-0.310;2022-12-10T06:18:23;6.20;73.20
57566;DHT22;63999;43.882;-0.310;2022-12-10T06:20:49;6.10;73.20
57566;DHT22;63999;43.882;-0.310;2022-12-10T06:23:15;6.20;73.00
57566;DHT22;63999;43.882;-0.310;2022-12-10T06:25:41;6.10;73.00
57566;DHT22;63999;43.882;-0.310;2022-12-10T06:28:08;6.10;72.70
57566;DHT22;63999;43.882;-0.310;2022-12-10T06:30:34;6.10;72.80
57566;DHT22;63999;43.882;-0.310;2022-12-10T06:33:00;6.10;73.10
57566;DHT22;63999;43.882;-0.310;2022-12-10T06:35:26;6.10;73.40
57566;DHT22;63999;43.882;-0.310;2022-12-10T06:37:52;6.00;72.80
57566;DHT22;63999;43.882;-0.310;2022-12-10T06:40:18;6.00;73.00
57566;DHT22;63999;43.882;-0.310;2022-12-10T06:42:44;6.00;72.90
57566;DHT22;63999;43.882;-0.310;2022-12-10T06:45:10;6.00;73.30
57566;DHT22;63999;43.882;-0.310;2022-12-10T06:47:36;6.00;73.00
57566;DHT22;63999;43.882;-0.310;2022-12-10T06:50:02;6.00;73.00
57566;DHT22;63999;43.882;-0.310;2022-12-10T06:52:28;6.00;73.00
57566;DHT22;63999;43.882;-0.310;2022-12-10T06:54:54;5.90;73.00
57566;DHT22;63999;43.882;-0.310;2022-12-10T06:57:21;6.00;73.10
57566;DHT22;63999;43.882;-0.310;2022-12-10T06:59:47;5.90;73.10
57566;DHT22;63999;43.882;-0.310;2022-12-10T07:02:13;5.90;73.10
57566;DHT22;63999;43.882;-0.310;2022-12-10T07:04:39;6.00;73.20
57566;DHT22;63999;43.882;-0.310;2022-12-10T07:07:06;5.90;72.90
57566;DHT22;63999;43.882;-0.310;2022-12-10T07:09:32;5.90;72.60
57566;DHT22;63999;43.882;-0.310;2022-12-10T07:11:58;5.90;73.10
57566;DHT22;63999;43.882;-0.310;2022-12-10T07:14:24;5.90;72.70
57566;DHT22;63999;43.882;-0.310;2022-12-10T07:16:50;5.90;73.40
57566;DHT22;63999;43.882;-0.310;2022-12-10T07:19:16;5.90;73.60
57566;DHT22;63999;43.882;-0.310;2022-12-10T07:21:43;5.90;73.70
57566;DHT22;63999;43.882;-0.310;2022-12-10T07:24:17;6.00;73.80
57566;DHT22;63999;43.882;-0.310;2022-12-10T07:26:44;6.00;73.20
57566;DHT22;63999;43.882;-0.310;2022-12-10T07:29:16;6.00;73.10
57566;DHT22;63999;43.882;-0.310;2022-12-10T07:31:42;6.00;72.30
57566;DHT22;63999;43.882;-0.310;2022-12-10T07:34:09;6.00;72.50
57566;DHT22;63999;43.882;-0.310;2022-12-10T07:36:35;5.90;72.00
57566;DHT22;63999;43.882;-0.310;2022-12-10T07:39:04;5.90;72.00
57566;DHT22;63999;43.882;-0.310;2022-12-10T07:41:30;5.80;71.90
57566;DHT22;63999;43.882;-0.310;2022-12-10T07:43:56;5.80;72.80
57566;DHT22;63999;43.882;-0.310;2022-12-10T07:46:25;5.80;72.50
57566;DHT22;63999;43.882;-0.310;2022-12-10T07:48:52;5.80;72.60
57566;DHT22;63999;43.882;-0.310;2022-12-10T07:51:19;5.80;71.90
57566;DHT22;63999;43.882;-0.310;2022-12-10T07:53:47;5.80;72.00
57566;DHT22;63999;43.882;-0.310;2022-12-10T07:56:13;5.80;72.40
57566;DHT22;63999;43.882;-0.310;2022-12-10T07:58:42;5.80;72.60
57566;DHT22;63999;43.882;-0.310;2022-12-10T08:01:13;5.70;72.30
57566;DHT22;63999;43.882;-0.310;2022-12-10T08:03:39;5.70;71.70
57566;DHT22;63999;43.882;-0.310;2022-12-10T08:06:14;5.70;72.00
57566;DHT22;63999;43.882;-0.310;2022-12-10T08:08:42;5.70;72.20
57566;DHT22;63999;43.882;-0.310;2022-12-10T08:11:08;5.70;72.10
57566;DHT22;63999;43.882;-0.310;2022-12-10T08:13:35;5.70;72.10
57566;DHT22;63999;43.882;-0.310;2022-12-10T08:16:07;5.70;72.10
57566;DHT22;63999;43.882;-0.310;2022-12-10T08:18:34;5.70;72.30
57566;DHT22;63999;43.882;-0.310;2022-12-10T08:21:05;5.70;72.20
57566;DHT22;63999;43.882;-0.310;2022-12-10T08:23:31;5.70;72.00
57566;DHT22;63999;43.882;-0.310;2022-12-10T08:25:56;5.70;72.20
57566;DHT22;63999;43.882;-0.310;2022-12-10T08:28:22;5.60;72.20
57566;DHT22;63999;43.882;-0.310;2022-12-10T08:30:48;5.60;72.00
57566;DHT22;63999;43.882;-0.310;2022-12-10T08:33:14;5.60;72.20
57566;DHT22;63999;43.882;-0.310;2022-12-10T08:35:40;5.60;71.80
57566;DHT22;63999;43.882;-0.310;2022-12-10T08:38:06;5.60;72.00
57566;DHT22;63999;43.882;-0.310;2022-12-10T08:40:32;5.60;72.20
57566;DHT22;63999;43.882;-0.310;2022-12-10T08:42:57;5.60;72.10
57566;DHT22;63999;43.882;-0.310;2022-12-10T08:45:23;5.60;72.50
57566;DHT22;63999;43.882;-0.310;2022-12-10T08:47:49;5.60;72.60
57566;DHT22;63999;43.882;-0.310;2022-12-10T08:50:15;5.60;72.00
57566;DHT22;63999;43.882;-0.310;2022-12-10T08:52:40;5.60;72.00
57566;DHT22;63999;43.882;-0.310;2022-12-10T08:55:07;5.60;72.10
57566;DHT22;63999;43.882;-0.310;2022-12-10T08:57:33;5.60;72.10
57566;DHT22;63999;43.882;-0.310;2022-12-10T08:59:59;5.60;72.10
57566;DHT22;63999;43.882;-0.310;2022-12-10T09:02:24;5.60;72.20
57566;DHT22;63999;43.882;-0.310;2022-12-10T09:04:50;5.60;72.20
57566;DHT22;63999;43.882;-0.310;2022-12-10T09:07:16;5.50;72.00
57566;DHT22;63999;43.882;-0.310;2022-12-10T09:09:42;5.60;72.00
57566;DHT22;63999;43.882;-0.310;2022-12-10T09:12:08;5.60;72.30
57566;DHT22;63999;43.882;-0.310;2022-12-10T09:14:33;5.60;71.90
57566;DHT22;63999;43.882;-0.310;2022-12-10T09:17:03;5.60;72.20
57566;DHT22;63999;43.882;-0.310;2022-12-10T09:19:29;5.60;72.10
57566;DHT22;63999;43.882;-0.310;2022-12-10T09:21:55;5.60;71.80
57566;DHT22;63999;43.882;-0.310;2022-12-10T09:24:21;5.60;72.00
57566;DHT22;63999;43.882;-0.310;2022-12-10T09:26:47;5.60;72.30
57566;DHT22;63999;43.882;-0.310;2022-12-10T09:29:13;5.60;72.30
57566;DHT22;63999;43.882;-0.310;2022-12-10T09:31:38;5.60;72.20
57566;DHT22;63999;43.882;-0.310;2022-12-10T09:34:04;5.60;72.30
57566;DHT22;63999;43.882;-0.310;2022-12-10T09:36:30;5.60;72.30
57566;DHT22;63999;43.882;-0.310;2022-12-10T09:38:56;5.60;72.50
57566;DHT22;63999;43.882;-0.310;2022-12-10T09:44:02;5.60;72.60
57566;DHT22;63999;43.882;-0.310;2022-12-10T09:51:59;5.60;72.90
57566;DHT22;63999;43.882;-0.310;2022-12-10T09:54:32;5.70;72.50
57566;DHT22;63999;43.882;-0.310;2022-12-10T09:56:59;5.70;72.70
57566;DHT22;63999;43.882;-0.310;2022-12-10T09:59:42;5.70;72.70
57566;DHT22;63999;43.882;-0.310;2022-12-10T10:04:35;5.70;72.70
57566;DHT22;63999;43.882;-0.310;2022-12-10T10:07:00;5.70;73.00
57566;DHT22;63999;43.882;-0.310;2022-12-10T10:09:26;5.70;72.80
57566;DHT22;63999;43.882;-0.310;2022-12-10T10:11:52;5.80;72.90
57566;DHT22;63999;43.882;-0.310;2022-12-10T10:14:28;5.80;73.10
57566;DHT22;63999;43.882;-0.310;2022-12-10T10:17:21;5.80;72.90
57566;DHT22;63999;43.882;-0.310;2022-12-10T10:19:48;5.80;72.80
57566;DHT22;63999;43.882;-0.310;2022-12-10T10:22:15;5.80;72.80
57566;DHT22;63999;43.882;-0.310;2022-12-10T10:24:43;5.80;72.60
57566;DHT22;63999;43.882;-0.310;2022-12-10T10:27:16;5.80;72.80
57566;DHT22;63999;43.882;-0.310;2022-12-10T10:29:47;5.90;72.90
57566;DHT22;63999;43.882;-0.310;2022-12-10T10:32:24;5.90;72.40
57566;DHT22;63999;43.882;-0.310;2022-12-10T10:34:59;5.90;72.60
57566;DHT22;63999;43.882;-0.310;2022-12-10T10:40:03;5.90;72.70
57566;DHT22;63999;43.882;-0.310;2022-12-10T10:42:37;5.90;72.80
57566;DHT22;63999;43.882;-0.310;2022-12-10T10:45:06;5.90;72.70
57566;DHT22;63999;43.882;-0.310;2022-12-10T10:50:46;6.00;72.70
57566;DHT22;63999;43.882;-0.310;2022-12-10T10:55:51;6.00;72.60
57566;DHT22;63999;43.882;-0.310;2022-12-10T10:58:22;6.00;72.60
57566;DHT22;63999;43.882;-0.310;2022-12-10T11:00:59;6.00;72.80
57566;DHT22;63999;43.882;-0.310;2022-12-10T11:03:28;6.00;72.70
57566;DHT22;63999;43.882;-0.310;2022-12-10T11:05:56;6.00;72.90
57566;DHT22;63999;43.882;-0.310;2022-12-10T11:08:25;6.10;72.70
57566;DHT22;63999;43.882;-0.310;2022-12-10T11:10:56;6.10;72.80
57566;DHT22;63999;43.882;-0.310;2022-12-10T11:13:29;6.10;72.80
57566;DHT22;63999;43.882;-0.310;2022-12-10T11:16:00;6.10;72.80
57566;DHT22;63999;43.882;-0.310;2022-12-10T11:18:33;6.10;72.90
57566;DHT22;63999;43.882;-0.310;2022-12-10T11:23:41;6.10;72.50
57566;DHT22;63999;43.882;-0.310;2022-12-10T11:26:41;6.10;72.90
57566;DHT22;63999;43.882;-0.310;2022-12-10T11:32:31;6.20;73.00
57566;DHT22;63999;43.882;-0.310;2022-12-10T11:35:19;6.20;73.00
57566;DHT22;63999;43.882;-0.310;2022-12-10T11:40:32;6.20;73.00
57566;DHT22;63999;43.882;-0.310;2022-12-10T11:51:11;6.30;73.30
57566;DHT22;63999;43.882;-0.310;2022-12-10T11:56:26;6.30;73.30
57566;DHT22;63999;43.882;-0.310;2022-12-10T11:59:15;6.30;73.30
57566;DHT22;63999;43.882;-0.310;2022-12-10T12:13:08;6.40;73.10
57566;DHT22;63999;43.882;-0.310;2022-12-10T12:15:20;6.40;73.10
57566;DHT22;63999;43.882;-0.310;2022-12-10T12:17:56;6.40;73.10
57566;DHT22;63999;43.882;-0.310;2022-12-10T12:20:37;6.40;72.90
57566;DHT22;63999;43.882;-0.310;2022-12-10T12:23:11;6.40;73.10
57566;DHT22;63999;43.882;-0.310;2022-12-10T12:25:44;6.40;72.90
57566;DHT22;63999;43.882;-0.310;2022-12-10T12:28:20;6.50;72.80
57566;DHT22;63999;43.882;-0.310;2022-12-10T12:31:03;6.50;72.80
57566;DHT22;63999;43.882;-0.310;2022-12-10T12:36:24;6.50;72.80
57566;DHT22;63999;43.882;-0.310;2022-12-10T12:39:23;6.50;72.80
57566;DHT22;63999;43.882;-0.310;2022-12-10T12:49:57;6.50;72.60
57566;DHT22;63999;43.882;-0.310;2022-12-10T12:52:35;6.60;72.50
57566;DHT22;63999;43.882;-0.310;2022-12-10T12:55:18;6.50;72.60
57566;DHT22;63999;43.882;-0.310;2022-12-10T12:57:51;6.60;72.50
57566;DHT22;63999;43.882;-0.310;2022-12-10T13:00:21;6.60;72.40
57566;DHT22;63999;43.882;-0.310;2022-12-10T13:02:51;6.60;72.40
57566;DHT22;63999;43.882;-0.310;2022-12-10T13:05:32;6.60;72.40
57566;DHT22;63999;43.882;-0.310;2022-12-10T13:13:37;6.60;72.10
57566;DHT22;63999;43.882;-0.310;2022-12-10T13:22:06;6.60;72.10
57566;DHT22;63999;43.882;-0.310;2022-12-10T13:49:02;6.70;71.70
57566;DHT22;63999;43.882;-0.310;2022-12-10T13:54:28;6.60;71.40
57566;DHT22;63999;43.882;-0.310;2022-12-10T14:00:02;6.60;71.50
57566;DHT22;63999;43.882;-0.310;2022-12-10T14:02:37;6.60;71.30
57566;DHT22;63999;43.882;-0.310;2022-12-10T14:05:38;6.60;71.40
57566;DHT22;63999;43.882;-0.310;2022-12-10T14:08:11;6.60;71.50
57566;DHT22;63999;43.882;-0.310;2022-12-10T14:10:41;6.60;70.80
57566;DHT22;63999;43.882;-0.310;2022-12-10T14:13:11;6.70;71.40
57566;DHT22;63999;43.882;-0.310;2022-12-10T14:15:37;6.70;71.00
57566;DHT22;63999;43.882;-0.310;2022-12-10T14:18:11;6.70;71.30
57566;DHT22;63999;43.882;-0.310;2022-12-10T14:20:44;6.70;71.20
57566;DHT22;63999;43.882;-0.310;2022-12-10T14:23:26;6.60;70.90
57566;DHT22;63999;43.882;-0.310;2022-12-10T14:26:03;6.60;71.00
57566;DHT22;63999;43.882;-0.310;2022-12-10T14:28:29;6.70;70.90
57566;DHT22;63999;43.882;-0.310;2022-12-10T14:30:55;6.60;70.70
57566;DHT22;63999;43.882;-0.310;2022-12-10T14:33:22;6.70;71.10
57566;DHT22;63999;43.882;-0.310;2022-12-10T14:35:50;6.70;71.10
57566;DHT22;63999;43.882;-0.310;2022-12-10T14:38:29;6.70;71.10
57566;DHT22;63999;43.882;-0.310;2022-12-10T14:40:56;6.70;70.90
57566;DHT22;63999;43.882;-0.310;2022-12-10T14:43:26;6.70;70.90
57566;DHT22;63999;43.882;-0.310;2022-12-10T14:46:00;6.70;70.70
57566;DHT22;63999;43.882;-0.310;2022-12-10T14:48:27;6.80;71.20
57566;DHT22;63999;43.882;-0.310;2022-12-10T14:50:53;6.80;70.70
57566;DHT22;63999;43.882;-0.310;2022-12-10T14:53:28;6.80;70.50
57566;DHT22;63999;43.882;-0.310;2022-12-10T14:56:03;6.80;70.70
57566;DHT22;63999;43.882;-0.310;2022-12-10T14:58:44;6.80;70.20
57566;DHT22;63999;43.882;-0.310;2022-12-10T15:01:33;6.80;70.30
57566;DHT22;63999;43.882;-0.310;2022-12-10T15:04:01;6.80;70.20
57566;DHT22;63999;43.882;-0.310;2022-12-10T15:06:31;6.80;70.70
57566;DHT22;63999;43.882;-0.310;2022-12-10T15:08:58;6.80;70.00
57566;DHT22;63999;43.882;-0.310;2022-12-10T15:11:25;6.80;70.40
57566;DHT22;63999;43.882;-0.310;2022-12-10T15:13:55;6.80;70.30
57566;DHT22;63999;43.882;-0.310;2022-12-10T15:16:42;6.80;69.90
57566;DHT22;63999;43.882;-0.310;2022-12-10T15:19:23;6.80;70.10
57566;DHT22;63999;43.882;-0.310;2022-12-10T15:21:50;6.80;70.10
57566;DHT22;63999;43.882;-0.310;2022-12-10T15:24:20;6.80;69.60
57566;DHT22;63999;43.882;-0.310;2022-12-10T15:26:49;6.80;69.50
57566;DHT22;63999;43.882;-0.310;2022-12-10T15:31:59;6.80;70.10
57566;DHT22;63999;43.882;-0.310;2022-12-10T15:34:27;6.80;69.90
57566;DHT22;63999;43.882;-0.310;2022-12-10T15:36:56;6.80;69.80
57566;DHT22;63999;43.882;-0.310;2022-12-10T15:39:35;6.80;69.60
57566;DHT22;63999;43.882;-0.310;2022-12-10T15:42:07;6.80;70.10
57566;DHT22;63999;43.882;-0.310;2022-12-10T15:44:41;6.80;70.20
57566;DHT22;63999;43.882;-0.310;2022-12-10T15:47:22;6.80;70.00
57566;DHT22;63999;43.882;-0.310;2022-12-10T15:49:49;6.80;69.80
57566;DHT22;63999;43.882;-0.310;2022-12-10T15:52:21;6.80;69.90
57566;DHT22;63999;43.882;-0.310;2022-12-10T15:54:49;6.80;70.30
57566;DHT22;63999;43.882;-0.310;2022-12-10T15:57:23;6.80;69.90
57566;DHT22;63999;43.882;-0.310;2022-12-10T15:59:52;6.80;69.70
57566;DHT22;63999;43.882;-0.310;2022-12-10T16:05:19;6.80;69.90
57566;DHT22;63999;43.882;-0.310;2022-12-10T16:07:47;6.80;70.00
57566;DHT22;63999;43.882;-0.310;2022-12-10T16:10:15;6.80;69.70
57566;DHT22;63999;43.882;-0.310;2022-12-10T16:12:42;6.80;70.30
57566;DHT22;63999;43.882;-0.310;2022-12-10T16:15:15;6.80;70.10
57566;DHT22;63999;43.882;-0.310;2022-12-10T16:17:42;6.80;69.90
57566;DHT22;63999;43.882;-0.310;2022-12-10T16:20:26;6.80;70.00
57566;DHT22;63999;43.882;-0.310;2022-12-10T16:22:57;6.80;70.10
57566;DHT22;63999;43.882;-0.310;2022-12-10T16:25:34;6.80;69.70
57566;DHT22;63999;43.882;-0.310;2022-12-10T16:28:12;6.80;69.60
57566;DHT22;63999;43.882;-0.310;2022-12-10T16:30:45;6.80;69.90
57566;DHT22;63999;43.882;-0.310;2022-12-10T16:33:14;6.70;69.10
57566;DHT22;63999;43.882;-0.310;2022-12-10T16:35:40;6.70;69.90
57566;DHT22;63999;43.882;-0.310;2022-12-10T16:38:06;6.70;69.60
57566;DHT22;63999;43.882;-0.310;2022-12-10T16:40:32;6.70;69.60
57566;DHT22;63999;43.882;-0.310;2022-12-10T16:42:58;6.70;69.70
57566;DHT22;63999;43.882;-0.310;2022-12-10T16:45:36;6.70;69.60
57566;DHT22;63999;43.882;-0.310;2022-12-10T16:48:03;6.60;69.10
57566;DHT22;63999;43.882;-0.310;2022-12-10T16:50:29;6.60;69.30
57566;DHT22;63999;43.882;-0.310;2022-12-10T16:52:56;6.60;69.50
57566;DHT22;63999;43.882;-0.310;2022-12-10T16:55:25;6.60;69.40
57566;DHT22;63999;43.882;-0.310;2022-12-10T16:57:52;6.60;69.00
57566;DHT22;63999;43.882;-0.310;2022-12-10T17:00:21;6.50;69.40
57566;DHT22;63999;43.882;-0.310;2022-12-10T17:02:49;6.50;68.60
57566;DHT22;63999;43.882;-0.310;2022-12-10T17:05:31;6.50;69.50
57566;DHT22;63999;43.882;-0.310;2022-12-10T17:08:01;6.50;69.20
57566;DHT22;63999;43.882;-0.310;2022-12-10T17:10:28;6.50;69.10
57566;DHT22;63999;43.882;-0.310;2022-12-10T17:13:14;6.50;69.30
57566;DHT22;63999;43.882;-0.310;2022-12-10T17:15:41;6.50;69.10
57566;DHT22;63999;43.882;-0.310;2022-12-10T17:18:16;6.40;69.30
57566;DHT22;63999;43.882;-0.310;2022-12-10T17:20:43;6.40;68.90
57566;DHT22;63999;43.882;-0.310;2022-12-10T17:23:10;6.40;69.00
57566;DHT22;63999;43.882;-0.310;2022-12-10T17:25:37;6.40;69.10
57566;DHT22;63999;43.882;-0.310;2022-12-10T17:28:04;6.40;69.70
57566;DHT22;63999;43.882;-0.310;2022-12-10T17:30:29;6.30;69.60
57566;DHT22;63999;43.882;-0.310;2022-12-10T17:32:55;6.30;69.40
57566;DHT22;63999;43.882;-0.310;2022-12-10T17:35:21;6.30;69.20
57566;DHT22;63999;43.882;-0.310;2022-12-10T17:37:47;6.30;69.80
57566;DHT22;63999;43.882;-0.310;2022-12-10T17:40:20;6.30;69.30
57566;DHT22;63999;43.882;-0.310;2022-12-10T17:42:46;6.20;69.30
57566;DHT22;63999;43.882;-0.310;2022-12-10T17:45:16;6.20;69.80